sensor_id;sensor_type;location;lat;lon;timestamp;P1;durP1;ratioP1;P2;durP2;ratioP2
55879;SDS011;41802;51.564;-1.838;2023-09-19T00:01:04;12.95;;;2.30;;
55879;SDS011;41802;51.564;-1.838;2023-09-19T00:03:34;15.95;;;1.60;;
55879;SDS011;41802;51.564;-1.838;2023-09-19T00:06:04;23.60;;;2.50;;
55879;SDS011;41802;51.564;-1.838;2023-09-19T00:08:34;14.00;;;1.77;;
55879;SDS011;41802;51.564;-1.838;2023-09-19T00:11:02;13.90;;;1.70;;
55879;SDS011;41802;51.564;-1.838;2023-09-19T00:13:30;11.27;;;2.05;;
55879;SDS011;41802;51.564;-1.838;2023-09-19T00:15:58;15.45;;;1.98;;
55879;SDS011;41802;51.564;-1.838;2023-09-19T00:18:28;12.60;;;1.58;;
55879;SDS011;41802;51.564;-1.838;2023-09-19T00:20:59;16.63;;;2.95;;
55879;SDS011;41802;51.564;-1.838;2023-09-19T00:23:26;17.53;;;2.53;;
55879;SDS011;41802;51.564;-1.838;2023-09-19T00:25:54;12.55;;;1.83;;
55879;SDS011;41802;51.564;-1.838;2023-09-19T00:28:28;20.85;;;2.65;;
55879;SDS011;41802;51.564;-1.838;2023-09-19T00:30:58;19.17;;;2.72;;
55879;SDS011;41802;51.564;-1.838;2023-09-19T00:33:29;16.95;;;2.03;;
55879;SDS011;41802;51.564;-1.838;2023-09-19T00:35:57;13.63;;;1.97;;
55879;SDS011;41802;51.564;-1.838;2023-09-19T00:38:26;14.52;;;2.42;;
55879;SDS011;41802;51.564;-1.838;2023-09-19T00:40:57;20.92;;;2.45;;
55879;SDS011;41802;51.564;-1.838;2023-09-19T00:43:26;13.65;;;2.22;;
55879;SDS011;41802;51.564;-1.838;2023-09-19T00:45:55;16.27;;;1.92;;
55879;SDS011;41802;51.564;-1.838;2023-09-19T00:48:23;18.70;;;2.43;;
55879;SDS011;41802;51.564;-1.838;2023-09-19T00:50:57;17.23;;;1.88;;
55879;SDS011;41802;51.564;-1.838;2023-09-19T00:53:26;15.82;;;2.20;;
55879;SDS011;41802;51.564;-1.838;2023-09-19T00:55:54;16.25;;;1.95;;
55879;SDS011;41802;51.564;-1.838;2023-09-19T00:58:22;12.95;;;1.95;;
55879;SDS011;41802;51.564;-1.838;2023-09-19T01:00:50;14.43;;;2.23;;
55879;SDS011;41802;51.564;-1.838;2023-09-19T01:03:19;18.98;;;2.47;;
55879;SDS011;41802;51.564;-1.838;2023-09-19T01:05:48;15.85;;;1.67;;
55879;SDS011;41802;51.564;-1.838;2023-09-19T01:08:18;18.05;;;3.42;;
55879;SDS011;41802;51.564;-1.838;2023-09-19T01:10:47;22.85;;;2.67;;
55879;SDS011;41802;51.564;-1.838;2023-09-19T01:13:21;13.83;;;1.87;;
55879;SDS011;41802;51.564;-1.838;2023-09-19T01:15:54;19.88;;;2.10;;
55879;SDS011;41802;51.564;-1.838;2023-09-19T01:18:26;17.13;;;1.95;;
55879;SDS011;41802;51.564;-1.838;2023-09-19T01:20:57;17.83;;;2.22;;
55879;SDS011;41802;51.564;-1.838;2023-09-19T01:23:31;19.25;;;2.65;;
55879;SDS011;41802;51.564;-1.838;2023-09-19T01:26:05;20.50;;;2.07;;
55879;SDS011;41802;51.564;-1.838;2023-09-19T01:28:43;20.42;;;2.10;;
55879;SDS011;41802;51.564;-1.838;2023-09-19T01:31:14;15.57;;;2.25;;
55879;SDS011;41802;51.564;-1.838;2023-09-19T01:33:56;15.65;;;1.58;;
55879;SDS011;41802;51.564;-1.838;2023-09-19T01:36:27;17.90;;;1.88;;
55879;SDS011;41802;51.564;-1.838;2023-09-19T01:38:57;16.63;;;2.20;;
55879;SDS011;41802;51.564;-1.838;2023-09-19T01:41:29;13.68;;;2.17;;
55879;SDS011;41802;51.564;-1.838;2023-09-19T01:44:04;19.90;;;3.05;;
55879;SDS011;41802;51.564;-1.838;2023-09-19T01:46:35;17.50;;;1.75;;
55879;SDS011;41802;51.564;-1.838;2023-09-19T01:49:06;18.88;;;1.85;;
55879;SDS011;41802;51.564;-1.838;2023-09-19T01:51:41;18.27;;;2.07;;
55879;SDS011;41802;51.564;-1.838;2023-09-19T01:54:10;19.00;;;2.72;;
55879;SDS011;41802;51.564;-1.838;2023-09-19T01:56:42;16.48;;;1.75;;
55879;SDS011;41802;51.564;-1.838;2023-09-19T01:59:13;19.67;;;2.45;;
55879;SDS011;41802;51.564;-1.838;2023-09-19T02:01:45;18.67;;;2.03;;
55879;SDS011;41802;51.564;-1.838;2023-09-19T02:04:14;14.87;;;1.43;;
55879;SDS011;41802;51.564;-1.838;2023-09-19T02:06:43;16.52;;;1.95;;
55879;SDS011;41802;51.564;-1.838;2023-09-19T02:09:14;16.80;;;1.83;;
55879;SDS011;41802;51.564;-1.838;2023-09-19T02:11:42;17.25;;;1.80;;
55879;SDS011;41802;51.564;-1.838;2023-09-19T02:14:10;13.30;;;1.63;;
55879;SDS011;41802;51.564;-1.838;2023-09-19T02:16:38;24.60;;;2.03;;
55879;SDS011;41802;51.564;-1.838;2023-09-19T02:19:07;13.98;;;1.90;;
55879;SDS011;41802;51.564;-1.838;2023-09-19T02:21:36;16.70;;;3.17;;
55879;SDS011;41802;51.564;-1.838;2023-09-19T02:24:07;18.10;;;2.83;;
55879;SDS011;41802;51.564;-1.838;2023-09-19T02:26:37;15.48;;;2.05;;
55879;SDS011;41802;51.564;-1.838;2023-09-19T02:29:04;13.33;;;2.70;;
55879;SDS011;41802;51.564;-1.838;2023-09-19T02:31:32;16.45;;;2.00;;
55879;SDS011;41802;51.564;-1.838;2023-09-19T02:34:00;15.10;;;1.75;;
55879;SDS011;41802;51.564;-1.838;2023-09-19T02:36:29;14.13;;;1.70;;
55879;SDS011;41802;51.564;-1.838;2023-09-19T02:38:57;17.33;;;2.05;;
55879;SDS011;41802;51.564;-1.838;2023-09-19T02:41:25;16.13;;;2.00;;
55879;SDS011;41802;51.564;-1.838;2023-09-19T02:43:59;13.13;;;2.40;;
55879;SDS011;41802;51.564;-1.838;2023-09-19T02:46:30;14.40;;;2.20;;
55879;SDS011;41802;51.564;-1.838;2023-09-19T02:48:57;13.63;;;1.50;;
55879;SDS011;41802;51.564;-1.838;2023-09-19T02:51:25;23.40;;;2.55;;
55879;SDS011;41802;51.564;-1.838;2023-09-19T02:53:54;14.17;;;1.53;;
55879;SDS011;41802;51.564;-1.838;2023-09-19T02:56:23;9.50;;;1.38;;
55879;SDS011;41802;51.564;-1.838;2023-09-19T02:58:51;13.32;;;2.30;;
55879;SDS011;41802;51.564;-1.838;2023-09-19T03:01:19;10.88;;;1.23;;
55879;SDS011;41802;51.564;-1.838;2023-09-19T03:03:47;12.13;;;1.38;;
55879;SDS011;41802;51.564;-1.838;2023-09-19T03:06:15;12.53;;;1.93;;
55879;SDS011;41802;51.564;-1.838;2023-09-19T03:08:46;14.13;;;1.67;;
55879;SDS011;41802;51.564;-1.838;2023-09-19T03:11:17;12.27;;;1.23;;
55879;SDS011;41802;51.564;-1.838;2023-09-19T03:13:52;9.35;;;1.55;;
55879;SDS011;41802;51.564;-1.838;2023-09-19T03:16:20;9.82;;;1.60;;
55879;SDS011;41802;51.564;-1.838;2023-09-19T03:18:51;13.73;;;2.00;;
55879;SDS011;41802;51.564;-1.838;2023-09-19T03:21:18;12.98;;;1.98;;
55879;SDS011;41802;51.564;-1.838;2023-09-19T03:23:48;13.38;;;2.30;;
55879;SDS011;41802;51.564;-1.838;2023-09-19T03:26:17;17.02;;;1.88;;
55879;SDS011;41802;51.564;-1.838;2023-09-19T03:28:45;14.15;;;1.50;;
55879;SDS011;41802;51.564;-1.838;2023-09-19T03:31:13;13.67;;;1.60;;
55879;SDS011;41802;51.564;-1.838;2023-09-19T03:33:41;10.85;;;1.42;;
55879;SDS011;41802;51.564;-1.838;2023-09-19T03:36:09;10.73;;;1.38;;
55879;SDS011;41802;51.564;-1.838;2023-09-19T03:38:37;11.82;;;1.20;;
55879;SDS011;41802;51.564;-1.838;2023-09-19T03:41:05;13.32;;;1.42;;
55879;SDS011;41802;51.564;-1.838;2023-09-19T03:43:33;11.17;;;1.20;;
55879;SDS011;41802;51.564;-1.838;2023-09-19T03:46:01;14.65;;;1.30;;
55879;SDS011;41802;51.564;-1.838;2023-09-19T03:48:32;15.93;;;1.33;;
55879;SDS011;41802;51.564;-1.838;2023-09-19T03:51:00;13.60;;;1.67;;
55879;SDS011;41802;51.564;-1.838;2023-09-19T03:53:28;14.25;;;1.23;;
55879;SDS011;41802;51.564;-1.838;2023-09-19T03:55:56;13.17;;;1.40;;
55879;SDS011;41802;51.564;-1.838;2023-09-19T03:58:24;16.73;;;1.65;;
55879;SDS011;41802;51.564;-1.838;2023-09-19T04:00:55;13.05;;;1.40;;
55879;SDS011;41802;51.564;-1.838;2023-09-19T04:03:24;12.35;;;2.22;;
55879;SDS011;41802;51.564;-1.838;2023-09-19T04:06:02;12.60;;;1.40;;
55879;SDS011;41802;51.564;-1.838;2023-09-19T04:08:30;15.53;;;1.90;;
55879;SDS011;41802;51.564;-1.838;2023-09-19T04:10:58;16.52;;;1.73;;
55879;SDS011;41802;51.564;-1.838;2023-09-19T04:13:26;9.43;;;1.33;;
55879;SDS011;41802;51.564;-1.838;2023-09-19T04:15:55;10.23;;;0.68;;
55879;SDS011;41802;51.564;-1.838;2023-09-19T04:18:23;10.55;;;1.20;;
55879;SDS011;41802;51.564;-1.838;2023-09-19T04:20:50;13.57;;;1.60;;
55879;SDS011;41802;51.564;-1.838;2023-09-19T04:23:18;9.98;;;1.00;;
55879;SDS011;41802;51.564;-1.838;2023-09-19T04:25:47;13.95;;;1.40;;
55879;SDS011;41802;51.564;-1.838;2023-09-19T04:28:15;10.73;;;1.33;;
55879;SDS011;41802;51.564;-1.838;2023-09-19T04:30:43;9.95;;;1.10;;
55879;SDS011;41802;51.564;-1.838;2023-09-19T04:33:12;9.00;;;0.87;;
55879;SDS011;41802;51.564;-1.838;2023-09-19T04:35:41;11.65;;;1.60;;
55879;SDS011;41802;51.564;-1.838;2023-09-19T04:38:11;10.23;;;1.00;;
55879;SDS011;41802;51.564;-1.838;2023-09-19T04:40:38;12.43;;;1.15;;
55879;SDS011;41802;51.564;-1.838;2023-09-19T04:43:08;10.82;;;1.10;;
55879;SDS011;41802;51.564;-1.838;2023-09-19T04:45:37;9.00;;;0.90;;
55879;SDS011;41802;51.564;-1.838;2023-09-19T04:48:06;10.07;;;1.33;;
55879;SDS011;41802;51.564;-1.838;2023-09-19T04:50:36;7.82;;;1.10;;
55879;SDS011;41802;51.564;-1.838;2023-09-19T04:53:05;7.32;;;0.98;;
55879;SDS011;41802;51.564;-1.838;2023-09-19T04:55:33;6.32;;;0.60;;
55879;SDS011;41802;51.564;-1.838;2023-09-19T04:58:01;8.53;;;0.90;;
55879;SDS011;41802;51.564;-1.838;2023-09-19T05:00:29;7.45;;;0.57;;
55879;SDS011;41802;51.564;-1.838;2023-09-19T05:03:02;8.48;;;1.10;;
55879;SDS011;41802;51.564;-1.838;2023-09-19T05:05:31;8.43;;;0.77;;
55879;SDS011;41802;51.564;-1.838;2023-09-19T05:08:03;7.82;;;0.60;;
55879;SDS011;41802;51.564;-1.838;2023-09-19T05:10:32;7.53;;;0.90;;
55879;SDS011;41802;51.564;-1.838;2023-09-19T05:13:00;5.15;;;0.60;;
55879;SDS011;41802;51.564;-1.838;2023-09-19T05:15:28;9.52;;;0.82;;
55879;SDS011;41802;51.564;-1.838;2023-09-19T05:17:56;7.18;;;0.70;;
55879;SDS011;41802;51.564;-1.838;2023-09-19T05:20:24;4.95;;;0.45;;
55879;SDS011;41802;51.564;-1.838;2023-09-19T05:22:59;7.60;;;0.63;;
55879;SDS011;41802;51.564;-1.838;2023-09-19T05:25:32;6.22;;;0.50;;
55879;SDS011;41802;51.564;-1.838;2023-09-19T05:28:04;5.80;;;0.90;;
55879;SDS011;41802;51.564;-1.838;2023-09-19T05:30:32;6.43;;;1.13;;
55879;SDS011;41802;51.564;-1.838;2023-09-19T05:33:02;6.90;;;0.82;;
55879;SDS011;41802;51.564;-1.838;2023-09-19T05:35:31;8.93;;;0.80;;
55879;SDS011;41802;51.564;-1.838;2023-09-19T05:38:17;7.82;;;0.85;;
55879;SDS011;41802;51.564;-1.838;2023-09-19T05:40:50;5.32;;;0.77;;
55879;SDS011;41802;51.564;-1.838;2023-09-19T05:43:18;4.57;;;1.27;;
55879;SDS011;41802;51.564;-1.838;2023-09-19T05:45:46;4.72;;;0.80;;
55879;SDS011;41802;51.564;-1.838;2023-09-19T05:48:14;7.63;;;1.20;;
55879;SDS011;41802;51.564;-1.838;2023-09-19T05:50:43;7.70;;;0.80;;
55879;SDS011;41802;51.564;-1.838;2023-09-19T05:53:11;9.57;;;1.88;;
55879;SDS011;41802;51.564;-1.838;2023-09-19T05:55:41;10.50;;;1.17;;
55879;SDS011;41802;51.564;-1.838;2023-09-19T05:58:11;6.85;;;0.82;;
55879;SDS011;41802;51.564;-1.838;2023-09-19T06:00:40;7.00;;;1.40;;
55879;SDS011;41802;51.564;-1.838;2023-09-19T06:03:11;8.82;;;0.80;;
55879;SDS011;41802;51.564;-1.838;2023-09-19T06:05:40;12.35;;;0.80;;
55879;SDS011;41802;51.564;-1.838;2023-09-19T06:08:08;10.93;;;1.50;;
55879;SDS011;41802;51.564;-1.838;2023-09-19T06:10:36;11.32;;;1.33;;
55879;SDS011;41802;51.564;-1.838;2023-09-19T06:13:03;9.60;;;1.27;;
55879;SDS011;41802;51.564;-1.838;2023-09-19T06:15:34;10.38;;;1.20;;
55879;SDS011;41802;51.564;-1.838;2023-09-19T06:18:02;10.45;;;1.05;;
55879;SDS011;41802;51.564;-1.838;2023-09-19T06:20:32;11.20;;;1.80;;
55879;SDS011;41802;51.564;-1.838;2023-09-19T06:23:00;8.48;;;1.20;;
55879;SDS011;41802;51.564;-1.838;2023-09-19T06:25:29;7.97;;;1.17;;
55879;SDS011;41802;51.564;-1.838;2023-09-19T06:27:57;11.50;;;1.60;;
55879;SDS011;41802;51.564;-1.838;2023-09-19T06:30:25;9.88;;;1.42;;
55879;SDS011;41802;51.564;-1.838;2023-09-19T06:32:57;9.88;;;1.40;;
55879;SDS011;41802;51.564;-1.838;2023-09-19T06:35:26;7.20;;;1.05;;
55879;SDS011;41802;51.564;-1.838;2023-09-19T06:37:53;10.63;;;1.50;;
55879;SDS011;41802;51.564;-1.838;2023-09-19T06:40:24;11.52;;;2.42;;
55879;SDS011;41802;51.564;-1.838;2023-09-19T06:42:54;6.85;;;2.13;;
55879;SDS011;41802;51.564;-1.838;2023-09-19T06:45:22;6.82;;;1.60;;
55879;SDS011;41802;51.564;-1.838;2023-09-19T06:47:54;8.57;;;1.40;;
55879;SDS011;41802;51.564;-1.838;2023-09-19T06:50:26;9.10;;;1.73;;
55879;SDS011;41802;51.564;-1.838;2023-09-19T06:52:54;12.35;;;1.48;;
55879;SDS011;41802;51.564;-1.838;2023-09-19T06:55:25;8.15;;;1.35;;
55879;SDS011;41802;51.564;-1.838;2023-09-19T06:57:55;7.13;;;1.52;;
55879;SDS011;41802;51.564;-1.838;2023-09-19T07:00:24;6.15;;;1.20;;
55879;SDS011;41802;51.564;-1.838;2023-09-19T07:02:55;8.67;;;2.60;;
55879;SDS011;41802;51.564;-1.838;2023-09-19T07:05:26;8.82;;;1.90;;
55879;SDS011;41802;51.564;-1.838;2023-09-19T07:07:55;10.40;;;1.90;;
55879;SDS011;41802;51.564;-1.838;2023-09-19T07:10:25;11.05;;;2.17;;
55879;SDS011;41802;51.564;-1.838;2023-09-19T07:12:55;8.88;;;2.10;;
55879;SDS011;41802;51.564;-1.838;2023-09-19T07:15:22;11.50;;;1.73;;
55879;SDS011;41802;51.564;-1.838;2023-09-19T07:17:51;10.80;;;1.55;;
55879;SDS011;41802;51.564;-1.838;2023-09-19T07:20:20;12.18;;;2.08;;
55879;SDS011;41802;51.564;-1.838;2023-09-19T07:22:49;9.00;;;1.52;;
55879;SDS011;41802;51.564;-1.838;2023-09-19T07:25:17;14.00;;;2.28;;
55879;SDS011;41802;51.564;-1.838;2023-09-19T07:27:46;11.73;;;2.17;;
55879;SDS011;41802;51.564;-1.838;2023-09-19T07:30:13;9.88;;;1.65;;
55879;SDS011;41802;51.564;-1.838;2023-09-19T07:32:42;11.65;;;2.08;;
55879;SDS011;41802;51.564;-1.838;2023-09-19T07:35:10;11.18;;;1.90;;
55879;SDS011;41802;51.564;-1.838;2023-09-19T07:37:39;19.35;;;2.55;;
55879;SDS011;41802;51.564;-1.838;2023-09-19T07:40:08;11.30;;;2.50;;
55879;SDS011;41802;51.564;-1.838;2023-09-19T07:42:37;15.60;;;2.70;;
55879;SDS011;41802;51.564;-1.838;2023-09-19T07:45:08;13.70;;;2.78;;
55879;SDS011;41802;51.564;-1.838;2023-09-19T07:47:36;15.95;;;2.40;;
55879;SDS011;41802;51.564;-1.838;2023-09-19T07:50:04;14.82;;;3.00;;
55879;SDS011;41802;51.564;-1.838;2023-09-19T07:52:34;17.63;;;3.10;;
55879;SDS011;41802;51.564;-1.838;2023-09-19T07:55:01;13.82;;;2.65;;
55879;SDS011;41802;51.564;-1.838;2023-09-19T07:57:37;17.33;;;2.50;;
55879;SDS011;41802;51.564;-1.838;2023-09-19T08:00:08;18.92;;;3.70;;
55879;SDS011;41802;51.564;-1.838;2023-09-19T08:02:38;17.95;;;2.63;;
55879;SDS011;41802;51.564;-1.838;2023-09-19T08:05:07;18.67;;;3.77;;
55879;SDS011;41802;51.564;-1.838;2023-09-19T08:07:36;11.27;;;2.28;;
55879;SDS011;41802;51.564;-1.838;2023-09-19T08:10:05;12.20;;;3.05;;
55879;SDS011;41802;51.564;-1.838;2023-09-19T08:12:34;15.50;;;2.63;;
55879;SDS011;41802;51.564;-1.838;2023-09-19T08:15:07;17.17;;;3.15;;
55879;SDS011;41802;51.564;-1.838;2023-09-19T08:17:37;16.33;;;2.80;;
55879;SDS011;41802;51.564;-1.838;2023-09-19T08:20:06;11.50;;;2.70;;
55879;SDS011;41802;51.564;-1.838;2023-09-19T08:22:35;11.38;;;2.53;;
55879;SDS011;41802;51.564;-1.838;2023-09-19T08:25:03;15.57;;;3.25;;
55879;SDS011;41802;51.564;-1.838;2023-09-19T08:27:34;14.07;;;3.53;;
55879;SDS011;41802;51.564;-1.838;2023-09-19T08:30:02;16.67;;;2.73;;
55879;SDS011;41802;51.564;-1.838;2023-09-19T08:32:35;15.18;;;2.45;;
55879;SDS011;41802;51.564;-1.838;2023-09-19T08:35:03;17.10;;;3.58;;
55879;SDS011;41802;51.564;-1.838;2023-09-19T08:37:34;22.38;;;4.22;;
55879;SDS011;41802;51.564;-1.838;2023-09-19T08:40:01;16.63;;;3.53;;
55879;SDS011;41802;51.564;-1.838;2023-09-19T08:42:29;15.07;;;3.70;;
55879;SDS011;41802;51.564;-1.838;2023-09-19T08:45:00;11.73;;;3.15;;
55879;SDS011;41802;51.564;-1.838;2023-09-19T08:47:30;14.98;;;2.58;;
55879;SDS011;41802;51.564;-1.838;2023-09-19T08:50:04;13.93;;;3.13;;
55879;SDS011;41802;51.564;-1.838;2023-09-19T08:52:41;16.00;;;3.17;;
55879;SDS011;41802;51.564;-1.838;2023-09-19T08:55:11;13.97;;;2.77;;
55879;SDS011;41802;51.564;-1.838;2023-09-19T08:57:39;12.02;;;3.42;;
55879;SDS011;41802;51.564;-1.838;2023-09-19T09:00:10;13.32;;;3.03;;
55879;SDS011;41802;51.564;-1.838;2023-09-19T09:02:41;14.00;;;2.72;;
55879;SDS011;41802;51.564;-1.838;2023-09-19T09:05:12;14.90;;;2.65;;
55879;SDS011;41802;51.564;-1.838;2023-09-19T09:07:40;11.73;;;2.13;;
55879;SDS011;41802;51.564;-1.838;2023-09-19T09:10:09;21.33;;;3.88;;
55879;SDS011;41802;51.564;-1.838;2023-09-19T09:12:37;14.35;;;3.60;;
55879;SDS011;41802;51.564;-1.838;2023-09-19T09:15:07;11.13;;;2.85;;
55879;SDS011;41802;51.564;-1.838;2023-09-19T09:17:38;13.77;;;2.75;;
55879;SDS011;41802;51.564;-1.838;2023-09-19T09:20:07;16.23;;;2.70;;
55879;SDS011;41802;51.564;-1.838;2023-09-19T09:22:37;14.63;;;2.80;;
55879;SDS011;41802;51.564;-1.838;2023-09-19T09:25:10;14.90;;;2.17;;
55879;SDS011;41802;51.564;-1.838;2023-09-19T09:27:38;16.13;;;2.78;;
55879;SDS011;41802;51.564;-1.838;2023-09-19T09:30:08;14.65;;;2.90;;
55879;SDS011;41802;51.564;-1.838;2023-09-19T09:32:36;14.70;;;3.33;;
55879;SDS011;41802;51.564;-1.838;2023-09-19T09:35:21;15.30;;;3.50;;
55879;SDS011;41802;51.564;-1.838;2023-09-19T09:38:00;13.20;;;3.03;;
55879;SDS011;41802;51.564;-1.838;2023-09-19T09:40:36;11.10;;;2.90;;
55879;SDS011;41802;51.564;-1.838;2023-09-19T09:43:24;14.93;;;3.70;;
55879;SDS011;41802;51.564;-1.838;2023-09-19T09:46:11;12.40;;;3.17;;
55879;SDS011;41802;51.564;-1.838;2023-09-19T09:48:56;16.35;;;2.58;;
55879;SDS011;41802;51.564;-1.838;2023-09-19T09:52:09;10.75;;;1.90;;
55879;SDS011;41802;51.564;-1.838;2023-09-19T09:54:58;12.52;;;2.85;;
55879;SDS011;41802;51.564;-1.838;2023-09-19T09:57:26;11.55;;;2.58;;
55879;SDS011;41802;51.564;-1.838;2023-09-19T09:59:54;16.43;;;3.00;;
55879;SDS011;41802;51.564;-1.838;2023-09-19T10:02:25;13.13;;;2.55;;
55879;SDS011;41802;51.564;-1.838;2023-09-19T10:04:57;16.23;;;2.90;;
55879;SDS011;41802;51.564;-1.838;2023-09-19T10:07:37;12.07;;;2.72;;
55879;SDS011;41802;51.564;-1.838;2023-09-19T10:10:10;16.98;;;2.75;;
55879;SDS011;41802;51.564;-1.838;2023-09-19T10:12:43;13.70;;;2.33;;
55879;SDS011;41802;51.564;-1.838;2023-09-19T10:15:12;10.90;;;2.25;;
55879;SDS011;41802;51.564;-1.838;2023-09-19T10:17:42;8.55;;;2.10;;
55879;SDS011;41802;51.564;-1.838;2023-09-19T10:20:14;13.25;;;2.33;;
55879;SDS011;41802;51.564;-1.838;2023-09-19T10:23:07;13.35;;;2.50;;
55879;SDS011;41802;51.564;-1.838;2023-09-19T10:25:39;14.70;;;2.00;;
55879;SDS011;41802;51.564;-1.838;2023-09-19T10:28:10;11.57;;;2.67;;
55879;SDS011;41802;51.564;-1.838;2023-09-19T10:30:41;10.02;;;2.08;;
55879;SDS011;41802;51.564;-1.838;2023-09-19T10:33:12;9.30;;;1.65;;
55879;SDS011;41802;51.564;-1.838;2023-09-19T10:35:42;11.50;;;1.70;;
55879;SDS011;41802;51.564;-1.838;2023-09-19T10:38:13;14.23;;;2.03;;
55879;SDS011;41802;51.564;-1.838;2023-09-19T10:40:48;11.63;;;2.58;;
55879;SDS011;41802;51.564;-1.838;2023-09-19T10:43:17;11.25;;;2.60;;
55879;SDS011;41802;51.564;-1.838;2023-09-19T10:45:48;8.68;;;1.55;;
55879;SDS011;41802;51.564;-1.838;2023-09-19T10:48:19;9.05;;;1.85;;
55879;SDS011;41802;51.564;-1.838;2023-09-19T10:51:04;8.43;;;2.00;;
55879;SDS011;41802;51.564;-1.838;2023-09-19T10:53:47;7.85;;;1.83;;
55879;SDS011;41802;51.564;-1.838;2023-09-19T10:56:18;7.03;;;1.90;;
55879;SDS011;41802;51.564;-1.838;2023-09-19T10:58:48;10.05;;;2.03;;
55879;SDS011;41802;51.564;-1.838;2023-09-19T11:01:15;10.02;;;2.08;;
55879;SDS011;41802;51.564;-1.838;2023-09-19T11:03:44;8.73;;;2.07;;
55879;SDS011;41802;51.564;-1.838;2023-09-19T11:06:16;9.10;;;2.05;;
55879;SDS011;41802;51.564;-1.838;2023-09-19T11:08:57;10.18;;;2.10;;
55879;SDS011;41802;51.564;-1.838;2023-09-19T11:11:39;10.20;;;1.80;;
55879;SDS011;41802;51.564;-1.838;2023-09-19T11:14:15;10.25;;;2.10;;
55879;SDS011;41802;51.564;-1.838;2023-09-19T11:22:12;10.48;;;1.25;;
55879;SDS011;41802;51.564;-1.838;2023-09-19T11:24:42;10.38;;;1.40;;
55879;SDS011;41802;51.564;-1.838;2023-09-19T11:27:13;5.70;;;1.02;;
55879;SDS011;41802;51.564;-1.838;2023-09-19T11:29:41;8.37;;;1.50;;
55879;SDS011;41802;51.564;-1.838;2023-09-19T11:32:11;5.70;;;1.52;;
55879;SDS011;41802;51.564;-1.838;2023-09-19T11:34:47;7.95;;;1.95;;
55879;SDS011;41802;51.564;-1.838;2023-09-19T11:40:06;12.23;;;1.73;;
55879;SDS011;41802;51.564;-1.838;2023-09-19T11:42:43;5.47;;;1.13;;
55879;SDS011;41802;51.564;-1.838;2023-09-19T11:47:58;5.60;;;0.82;;
55879;SDS011;41802;51.564;-1.838;2023-09-19T11:50:28;5.45;;;1.38;;
55879;SDS011;41802;51.564;-1.838;2023-09-19T11:52:59;6.72;;;1.10;;
55879;SDS011;41802;51.564;-1.838;2023-09-19T11:55:29;5.53;;;1.10;;
55879;SDS011;41802;51.564;-1.838;2023-09-19T11:57:59;5.13;;;0.95;;
55879;SDS011;41802;51.564;-1.838;2023-09-19T12:00:27;5.85;;;1.10;;
55879;SDS011;41802;51.564;-1.838;2023-09-19T12:02:55;6.20;;;1.35;;
55879;SDS011;41802;51.564;-1.838;2023-09-19T12:05:30;5.68;;;1.48;;
55879;SDS011;41802;51.564;-1.838;2023-09-19T12:07:59;6.30;;;1.37;;
55879;SDS011;41802;51.564;-1.838;2023-09-19T12:10:29;6.93;;;1.20;;
55879;SDS011;41802;51.564;-1.838;2023-09-19T12:12:57;4.88;;;0.80;;
55879;SDS011;41802;51.564;-1.838;2023-09-19T12:15:26;4.38;;;0.88;;
55879;SDS011;41802;51.564;-1.838;2023-09-19T12:17:55;4.05;;;0.80;;
55879;SDS011;41802;51.564;-1.838;2023-09-19T12:20:23;4.90;;;0.97;;
55879;SDS011;41802;51.564;-1.838;2023-09-19T12:22:51;7.68;;;1.35;;
55879;SDS011;41802;51.564;-1.838;2023-09-19T12:25:18;4.45;;;0.98;;
55879;SDS011;41802;51.564;-1.838;2023-09-19T12:27:49;4.57;;;0.70;;
55879;SDS011;41802;51.564;-1.838;2023-09-19T12:30:19;5.88;;;1.38;;
55879;SDS011;41802;51.564;-1.838;2023-09-19T12:32:53;5.47;;;1.00;;
55879;SDS011;41802;51.564;-1.838;2023-09-19T12:35:29;4.75;;;1.13;;
55879;SDS011;41802;51.564;-1.838;2023-09-19T12:37:57;4.57;;;0.95;;
55879;SDS011;41802;51.564;-1.838;2023-09-19T12:40:25;5.75;;;1.02;;
55879;SDS011;41802;51.564;-1.838;2023-09-19T12:42:57;4.90;;;1.10;;
55879;SDS011;41802;51.564;-1.838;2023-09-19T12:45:27;5.50;;;0.95;;
55879;SDS011;41802;51.564;-1.838;2023-09-19T12:53:38;5.47;;;1.05;;
55879;SDS011;41802;51.564;-1.838;2023-09-19T12:56:13;4.40;;;0.88;;
55879;SDS011;41802;51.564;-1.838;2023-09-19T12:58:50;6.60;;;1.20;;
55879;SDS011;41802;51.564;-1.838;2023-09-19T13:01:18;4.57;;;1.33;;
55879;SDS011;41802;51.564;-1.838;2023-09-19T13:03:46;4.07;;;0.83;;
55879;SDS011;41802;51.564;-1.838;2023-09-19T13:06:14;4.75;;;0.90;;
55879;SDS011;41802;51.564;-1.838;2023-09-19T13:08:43;8.02;;;0.93;;
55879;SDS011;41802;51.564;-1.838;2023-09-19T13:11:17;4.55;;;0.75;;
55879;SDS011;41802;51.564;-1.838;2023-09-19T13:13:46;7.45;;;1.20;;
55879;SDS011;41802;51.564;-1.838;2023-09-19T13:16:17;4.70;;;1.00;;
55879;SDS011;41802;51.564;-1.838;2023-09-19T13:18:49;4.17;;;0.63;;
55879;SDS011;41802;51.564;-1.838;2023-09-19T13:21:27;5.53;;;1.17;;
55879;SDS011;41802;51.564;-1.838;2023-09-19T13:24:01;4.25;;;1.00;;
55879;SDS011;41802;51.564;-1.838;2023-09-19T13:26:44;6.07;;;0.82;;
55879;SDS011;41802;51.564;-1.838;2023-09-19T13:29:12;6.32;;;0.93;;
55879;SDS011;41802;51.564;-1.838;2023-09-19T13:31:41;3.97;;;0.80;;
55879;SDS011;41802;51.564;-1.838;2023-09-19T13:34:09;5.53;;;1.13;;
55879;SDS011;41802;51.564;-1.838;2023-09-19T13:36:39;4.45;;;1.13;;
55879;SDS011;41802;51.564;-1.838;2023-09-19T13:39:08;3.50;;;0.70;;
55879;SDS011;41802;51.564;-1.838;2023-09-19T13:41:36;5.53;;;0.70;;
55879;SDS011;41802;51.564;-1.838;2023-09-19T13:44:04;4.70;;;0.80;;
55879;SDS011;41802;51.564;-1.838;2023-09-19T13:46:32;7.57;;;0.77;;
55879;SDS011;41802;51.564;-1.838;2023-09-19T13:49:03;4.75;;;1.00;;
55879;SDS011;41802;51.564;-1.838;2023-09-19T13:51:31;3.40;;;0.70;;
55879;SDS011;41802;51.564;-1.838;2023-09-19T13:53:59;5.55;;;1.13;;
55879;SDS011;41802;51.564;-1.838;2023-09-19T13:56:26;4.37;;;1.13;;
55879;SDS011;41802;51.564;-1.838;2023-09-19T13:58:57;4.35;;;1.25;;
55879;SDS011;41802;51.564;-1.838;2023-09-19T14:01:24;5.07;;;1.00;;
55879;SDS011;41802;51.564;-1.838;2023-09-19T14:03:54;4.10;;;0.82;;
55879;SDS011;41802;51.564;-1.838;2023-09-19T14:06:25;3.30;;;1.25;;
55879;SDS011;41802;51.564;-1.838;2023-09-19T14:08:52;4.50;;;0.90;;
55879;SDS011;41802;51.564;-1.838;2023-09-19T14:11:20;3.72;;;0.90;;
55879;SDS011;41802;51.564;-1.838;2023-09-19T14:13:48;7.07;;;1.00;;
55879;SDS011;41802;51.564;-1.838;2023-09-19T14:16:16;4.32;;;0.82;;
55879;SDS011;41802;51.564;-1.838;2023-09-19T14:18:45;5.00;;;1.00;;
55879;SDS011;41802;51.564;-1.838;2023-09-19T14:21:13;5.83;;;1.43;;
55879;SDS011;41802;51.564;-1.838;2023-09-19T14:23:42;4.97;;;0.90;;
55879;SDS011;41802;51.564;-1.838;2023-09-19T14:26:11;5.47;;;1.50;;
55879;SDS011;41802;51.564;-1.838;2023-09-19T14:28:39;11.45;;;1.15;;
55879;SDS011;41802;51.564;-1.838;2023-09-19T14:31:07;8.35;;;1.95;;
55879;SDS011;41802;51.564;-1.838;2023-09-19T14:33:35;4.90;;;1.30;;
55879;SDS011;41802;51.564;-1.838;2023-09-19T14:36:04;6.45;;;1.80;;
55879;SDS011;41802;51.564;-1.838;2023-09-19T14:38:35;8.10;;;1.80;;
55879;SDS011;41802;51.564;-1.838;2023-09-19T14:41:04;8.52;;;1.67;;
55879;SDS011;41802;51.564;-1.838;2023-09-19T14:43:32;6.65;;;1.60;;
55879;SDS011;41802;51.564;-1.838;2023-09-19T14:46:02;8.87;;;1.77;;
55879;SDS011;41802;51.564;-1.838;2023-09-19T14:48:32;7.35;;;1.45;;
55879;SDS011;41802;51.564;-1.838;2023-09-19T14:51:04;11.07;;;2.08;;
55879;SDS011;41802;51.564;-1.838;2023-09-19T14:53:33;10.77;;;1.75;;
55879;SDS011;41802;51.564;-1.838;2023-09-19T14:56:01;13.40;;;2.40;;
55879;SDS011;41802;51.564;-1.838;2023-09-19T14:58:35;7.47;;;1.67;;
55879;SDS011;41802;51.564;-1.838;2023-09-19T15:01:06;8.65;;;2.15;;